createdAt,value
2018-09-09T00:00:02.162Z,15.2222222222
2018-09-09T00:00:14.673Z,15.2777777778
2018-09-09T00:00:27.099Z,15.2222222222
2018-09-09T00:00:39.523Z,15.2777777778
2018-09-09T00:00:51.942Z,15.2222222222
2018-09-09T00:01:04.392Z,15.2777777778
2018-09-09T00:01:16.847Z,15.2777777778
2018-09-09T00:01:29.313Z,15.2777777778
2018-09-09T00:01:41.708Z,15.2222222222
2018-09-09T00:01:54.162Z,15.2222222222
2018-09-09T00:02:06.610Z,15.2777777778
2018-09-09T00:02:19.040Z,15.2222222222
2018-09-09T00:02:31.719Z,15.2777777778
2018-09-09T00:02:44.108Z,15.2777777778
2018-09-09T00:02:56.520Z,15.2777777778
2018-09-09T00:03:09.080Z,15.2777777778
2018-09-09T00:03:21.508Z,15.2222222222
2018-09-09T00:03:33.912Z,15.2222222222
2018-09-09T00:03:46.303Z,15.2222222222
2018-09-09T00:03:58.726Z,15.2777777778
2018-09-09T00:04:11.289Z,15.2222222222
2018-09-09T00:04:23.692Z,15.2222222222
2018-09-09T00:04:36.091Z,15.2777777778
2018-09-09T00:04:48.487Z,15.2222222222
2018-09-09T00:05:01.109Z,15.2222222222
2018-09-09T00:05:13.525Z,15.2222222222
2018-09-09T00:05:25.931Z,15.2222222222
2018-09-09T00:05:38.324Z,15.2222222222
2018-09-09T00:05:50.713Z,15.2777777778
2018-09-09T00:06:03.142Z,15.2222222222
2018-09-09T00:06:15.565Z,15.2777777778
2018-09-09T00:06:28.050Z,15.2222222222
2018-09-09T00:06:40.504Z,15.2222222222
2018-09-09T00:06:52.933Z,15.2222222222
2018-09-09T00:07:05.347Z,15.2222222222
2018-09-09T00:07:17.760Z,15.2222222222
2018-09-09T00:07:30.160Z,15.2222222222
2018-09-09T00:07:42.551Z,15.2222222222
2018-09-09T00:07:54.949Z,15.2222222222
2018-09-09T00:08:07.368Z,15.2222222222
2018-09-09T00:08:19.779Z,15.2222222222
2018-09-09T00:08:32.174Z,15.2222222222
2018-09-09T00:08:44.592Z,15.2222222222
2018-09-09T00:08:56.984Z,15.2222222222
2018-09-09T00:09:09.412Z,15.2222222222
2018-09-09T00:09:21.839Z,15.2222222222
2018-09-09T00:09:34.219Z,15.2222222222
2018-09-09T00:09:46.616Z,15.2222222222
2018-09-09T00:09:59.016Z,15.2222222222
2018-09-09T00:10:11.413Z,15.2222222222
2018-09-09T00:10:23.820Z,15.2222222222
2018-09-09T00:10:36.214Z,15.2222222222
2018-09-09T00:10:48.682Z,15.2222222222
2018-09-09T00:11:01.088Z,15.2222222222
2018-09-09T00:11:13.514Z,15.2222222222
2018-09-09T00:11:25.908Z,15.2222222222
2018-09-09T00:11:38.507Z,15.2222222222
2018-09-09T00:11:50.901Z,15.2777777778
2018-09-09T00:12:03.288Z,15.2222222222
2018-09-09T00:12:15.681Z,15.2222222222
2018-09-09T00:12:28.280Z,15.2222222222
2018-09-09T00:12:40.894Z,15.2222222222
2018-09-09T00:12:53.328Z,15.2222222222
2018-09-09T00:13:05.732Z,15.2222222222
2018-09-09T00:13:18.127Z,15.2222222222
2018-09-09T00:13:30.515Z,15.2222222222
2018-09-09T00:13:42.917Z,15.2222222222
2018-09-09T00:13:55.327Z,15.2222222222
2018-09-09T00:14:07.742Z,15.2222222222
2018-09-09T00:14:20.154Z,15.2222222222
2018-09-09T00:14:32.655Z,15.2777777778
2018-09-09T00:14:45.063Z,15.2222222222
2018-09-09T00:14:57.492Z,15.2222222222
2018-09-09T00:15:09.926Z,15.2777777778
2018-09-09T00:15:22.336Z,15.2777777778
2018-09-09T00:15:34.746Z,15.2777777778
2018-09-09T00:15:47.140Z,15.2222222222
2018-09-09T00:15:59.544Z,15.2777777778
2018-09-09T00:16:12.117Z,15.2777777778
2018-09-09T00:16:24.528Z,15.2777777778
2018-09-09T00:16:36.927Z,15.2777777778
2018-09-09T00:16:49.374Z,15.2222222222
2018-09-09T00:17:01.813Z,15.2222222222
2018-09-09T00:17:14.210Z,15.2222222222
2018-09-09T00:17:26.625Z,15.2777777778
2018-09-09T00:17:39.277Z,15.2222222222
2018-09-09T00:17:51.773Z,15.2222222222
2018-09-09T00:18:04.227Z,15.2222222222
2018-09-09T00:18:16.622Z,15.2777777778
2018-09-09T00:18:29.010Z,15.2222222222
2018-09-09T00:18:41.408Z,15.2222222222
2018-09-09T00:18:53.800Z,15.2777777778
2018-09-09T00:19:06.196Z,15.2777777778
2018-09-09T00:19:18.584Z,15.2777777778
2018-09-09T00:19:30.972Z,15.2777777778
2018-09-09T00:19:43.388Z,15.2777777778
2018-09-09T00:19:55.790Z,15.2222222222
2018-09-09T00:20:08.214Z,15.2222222222
2018-09-09T00:20:20.619Z,15.2222222222
2018-09-09T00:20:33.732Z,15.2777777778
2018-09-09T00:20:46.275Z,15.2777777778
2018-09-09T00:20:58.713Z,15.2777777778
2018-09-09T00:21:11.098Z,15.2777777778
2018-09-09T00:21:23.498Z,15.2777777778
2018-09-09T00:21:35.893Z,15.2222222222
2018-09-09T00:21:48.307Z,15.2777777778
2018-09-09T00:22:00.707Z,15.2222222222
2018-09-09T00:22:13.112Z,15.2222222222
2018-09-09T00:22:25.505Z,15.2222222222
2018-09-09T00:22:37.896Z,15.2222222222
2018-09-09T00:22:50.294Z,15.2222222222
2018-09-09T00:23:02.783Z,15.2222222222
2018-09-09T00:23:15.352Z,15.2222222222
2018-09-09T00:23:27.752Z,15.2222222222
2018-09-09T00:23:40.158Z,15.2222222222
2018-09-09T00:23:52.823Z,15.2222222222
2018-09-09T00:24:05.209Z,15.2222222222
2018-09-09T00:24:17.619Z,15.2222222222
2018-09-09T00:24:30.019Z,15.2222222222
2018-09-09T00:24:42.705Z,15.2222222222
2018-09-09T00:24:55.115Z,15.2222222222
2018-09-09T00:25:07.512Z,15.2222222222
2018-09-09T00:25:19.913Z,15.2222222222
2018-09-09T00:25:32.342Z,15.2222222222
2018-09-09T00:25:44.810Z,15.2222222222
2018-09-09T00:25:57.211Z,15.2222222222
2018-09-09T00:26:09.603Z,15.1666666667
2018-09-09T00:26:22.010Z,15.2222222222
2018-09-09T00:26:34.436Z,15.2222222222
2018-09-09T00:26:47.046Z,15.2222222222
2018-09-09T00:26:59.473Z,15.2222222222
2018-09-09T00:27:11.936Z,15.2222222222
2018-09-09T00:27:24.365Z,15.2222222222
2018-09-09T00:27:36.760Z,15.2222222222
2018-09-09T00:27:49.159Z,15.2222222222
2018-09-09T00:28:01.562Z,15.2222222222
2018-09-09T00:28:13.970Z,15.1666666667
2018-09-09T00:28:26.398Z,15.2222222222
2018-09-09T00:28:38.824Z,15.2222222222
2018-09-09T00:28:51.233Z,15.2222222222
2018-09-09T00:29:03.644Z,15.1666666667
2018-09-09T00:29:16.081Z,15.2222222222
2018-09-09T00:29:28.495Z,15.1666666667
2018-09-09T00:29:40.916Z,15.1666666667
2018-09-09T00:29:53.323Z,15.1666666667
2018-09-09T00:30:05.733Z,15.1666666667
2018-09-09T00:30:18.180Z,15.1666666667
2018-09-09T00:30:30.607Z,15.2222222222
2018-09-09T00:30:43.021Z,15.2222222222
2018-09-09T00:30:55.433Z,15.1666666667
2018-09-09T00:31:07.861Z,15.1666666667
2018-09-09T00:31:20.269Z,15.1666666667
2018-09-09T00:31:32.678Z,15.1666666667
2018-09-09T00:31:45.252Z,15.1666666667
2018-09-09T00:31:57.634Z,15.1666666667
2018-09-09T00:32:10.024Z,15.1666666667
2018-09-09T00:32:22.422Z,15.1666666667
2018-09-09T00:32:34.823Z,15.1666666667
2018-09-09T00:32:47.234Z,15.1666666667
2018-09-09T00:32:59.688Z,15.1666666667
2018-09-09T00:33:12.086Z,15.1666666667
2018-09-09T00:33:24.500Z,15.1666666667
2018-09-09T00:33:36.905Z,15.1666666667
2018-09-09T00:33:49.312Z,15.1666666667
2018-09-09T00:34:01.713Z,15.1666666667
2018-09-09T00:34:14.119Z,15.1666666667
2018-09-09T00:34:26.539Z,15.1666666667
2018-09-09T00:34:38.943Z,15.1666666667
2018-09-09T00:34:51.340Z,15.1666666667
2018-09-09T00:35:03.745Z,15.2222222222
2018-09-09T00:35:16.161Z,15.1666666667
2018-09-09T00:35:28.546Z,15.1666666667
2018-09-09T00:35:40.952Z,15.1666666667
2018-09-09T00:35:53.340Z,15.2222222222
2018-09-09T00:36:05.737Z,15.2222222222
2018-09-09T00:36:18.131Z,15.2222222222
2018-09-09T00:36:30.533Z,15.1666666667
2018-09-09T00:36:42.974Z,15.2222222222
2018-09-09T00:36:55.376Z,15.2222222222
2018-09-09T00:37:07.818Z,15.1666666667
2018-09-09T00:37:20.253Z,15.2222222222
2018-09-09T00:37:32.822Z,15.2222222222
2018-09-09T00:37:45.205Z,15.2222222222
2018-09-09T00:37:57.646Z,15.2222222222
2018-09-09T00:38:10.052Z,15.2222222222
2018-09-09T00:38:22.445Z,15.2222222222
2018-09-09T00:38:34.856Z,15.1666666667
2018-09-09T00:38:47.254Z,15.2222222222
2018-09-09T00:38:59.653Z,15.2222222222
2018-09-09T00:39:12.056Z,15.2222222222
2018-09-09T00:39:24.464Z,15.2222222222
2018-09-09T00:39:36.858Z,15.2222222222
2018-09-09T00:39:49.278Z,15.2222222222
2018-09-09T00:40:01.684Z,15.2222222222
2018-09-09T00:40:14.084Z,15.2222222222
2018-09-09T00:40:26.485Z,15.2222222222
2018-09-09T00:40:38.896Z,15.2222222222
2018-09-09T00:40:51.312Z,15.2222222222
2018-09-09T00:41:03.699Z,15.2222222222
2018-09-09T00:41:16.149Z,15.2222222222
2018-09-09T00:41:28.553Z,15.2222222222
2018-09-09T00:41:40.991Z,15.2222222222
2018-09-09T00:41:53.425Z,15.2222222222
2018-09-09T00:42:05.871Z,15.2222222222
2018-09-09T00:42:18.283Z,15.2222222222
2018-09-09T00:42:30.734Z,15.2222222222
2018-09-09T00:42:43.163Z,15.2777777778
2018-09-09T00:42:55.593Z,15.2222222222
2018-09-09T00:43:07.999Z,15.2222222222
2018-09-09T00:43:20.419Z,15.2222222222
2018-09-09T00:43:32.863Z,15.2222222222
2018-09-09T00:43:45.262Z,15.2222222222
2018-09-09T00:43:57.663Z,15.2222222222
2018-09-09T00:44:10.090Z,15.2222222222
2018-09-09T00:44:22.506Z,15.2222222222
2018-09-09T00:44:34.917Z,15.2222222222
2018-09-09T00:44:47.320Z,15.2222222222
2018-09-09T00:44:59.736Z,15.2222222222
2018-09-09T00:45:12.130Z,15.2222222222
2018-09-09T00:45:24.529Z,15.2222222222
2018-09-09T00:45:36.946Z,15.2222222222
2018-09-09T00:45:49.403Z,15.2222222222
2018-09-09T00:46:01.872Z,15.2222222222
2018-09-09T00:46:14.328Z,15.2222222222
2018-09-09T00:46:26.739Z,15.2222222222
2018-09-09T00:46:39.136Z,15.2222222222
2018-09-09T00:46:51.543Z,15.2222222222
2018-09-09T00:47:03.969Z,15.2222222222
2018-09-09T00:47:16.367Z,15.2222222222
2018-09-09T00:47:28.756Z,15.2222222222
2018-09-09T00:47:41.407Z,15.1666666667
2018-09-09T00:47:53.819Z,15.2222222222
2018-09-09T00:48:06.221Z,15.2222222222
2018-09-09T00:48:18.639Z,15.2222222222
2018-09-09T00:48:31.045Z,15.2222222222
2018-09-09T00:48:43.465Z,15.2222222222
2018-09-09T00:48:55.889Z,15.2222222222
2018-09-09T00:49:08.287Z,15.1666666667
2018-09-09T00:49:20.831Z,15.1666666667
2018-09-09T00:49:33.307Z,15.1666666667
2018-09-09T00:49:45.738Z,15.1666666667
2018-09-09T00:49:58.162Z,15.1666666667
2018-09-09T00:50:10.613Z,15.1666666667
2018-09-09T00:50:23.018Z,15.1666666667
2018-09-09T00:50:35.443Z,15.1666666667
2018-09-09T00:50:47.851Z,15.1666666667
2018-09-09T00:51:00.246Z,15.1666666667
2018-09-09T00:51:12.739Z,15.1666666667
2018-09-09T00:51:25.190Z,15.1666666667
2018-09-09T00:51:37.604Z,15.1666666667
2018-09-09T00:51:49.986Z,15.1666666667
2018-09-09T00:52:02.384Z,15.1666666667
2018-09-09T00:52:14.790Z,15.1666666667
2018-09-09T00:52:27.189Z,15.1111111111
2018-09-09T00:52:39.636Z,15.1111111111
2018-09-09T00:52:52.046Z,15.1666666667
2018-09-09T00:53:04.499Z,15.1111111111
2018-09-09T00:53:16.927Z,15.1111111111
2018-09-09T00:53:29.347Z,15.1666666667
2018-09-09T00:53:41.957Z,15.1666666667
2018-09-09T00:53:54.462Z,15.1666666667
2018-09-09T00:54:06.865Z,15.1111111111
2018-09-09T00:54:19.276Z,15.1111111111
2018-09-09T00:54:31.687Z,15.1111111111
2018-09-09T00:54:44.070Z,15.1111111111
2018-09-09T00:54:56.456Z,15.1111111111
2018-09-09T00:55:08.849Z,15.1111111111
2018-09-09T00:55:21.260Z,15.1111111111
2018-09-09T00:55:33.744Z,15.1111111111
2018-09-09T00:55:46.176Z,15.1111111111
2018-09-09T00:55:58.591Z,15.1111111111
2018-09-09T00:56:11.022Z,15.1111111111
2018-09-09T00:56:23.426Z,15.1111111111
2018-09-09T00:56:35.830Z,15.1111111111
2018-09-09T00:56:48.237Z,15.1111111111
2018-09-09T00:57:00.653Z,15.0555555556
2018-09-09T00:57:13.066Z,15.1111111111
2018-09-09T00:57:25.486Z,15.1111111111
2018-09-09T00:57:38.323Z,15.1111111111
2018-09-09T00:57:50.827Z,15.1111111111
2018-09-09T00:58:03.260Z,15.0555555556
2018-09-09T00:58:15.672Z,15.0555555556
2018-09-09T00:58:28.131Z,15.1111111111
2018-09-09T00:58:40.537Z,15.0555555556
2018-09-09T00:58:52.966Z,15.0555555556
2018-09-09T00:59:05.365Z,15.0555555556
2018-09-09T00:59:17.938Z,15.0555555556
2018-09-09T00:59:30.361Z,15.0555555556
2018-09-09T00:59:42.943Z,15.0555555556
2018-09-09T00:59:55.356Z,15.0555555556
2018-09-09T01:00:07.770Z,15.0555555556
2018-09-09T01:00:20.180Z,15.0555555556
2018-09-09T01:00:32.663Z,15.0555555556
2018-09-09T01:00:45.158Z,15.0555555556
2018-09-09T01:00:57.599Z,15.0555555556
2018-09-09T01:01:10.031Z,15.0555555556
2018-09-09T01:01:22.478Z,15
2018-09-09T01:01:34.889Z,15.0555555556
2018-09-09T01:01:47.287Z,15
2018-09-09T01:01:59.690Z,15.0555555556
2018-09-09T01:02:12.123Z,15
2018-09-09T01:02:24.587Z,15
2018-09-09T01:02:37.044Z,15
2018-09-09T01:02:49.531Z,15
2018-09-09T01:03:01.942Z,15
2018-09-09T01:03:14.437Z,15
2018-09-09T01:03:26.854Z,15
2018-09-09T01:03:39.263Z,15
2018-09-09T01:03:51.686Z,15
2018-09-09T01:04:04.109Z,15
2018-09-09T01:04:16.744Z,14.9444444444
2018-09-09T01:04:29.170Z,14.9444444444
2018-09-09T01:04:41.572Z,14.9444444444
2018-09-09T01:04:53.980Z,14.9444444444
2018-09-09T01:05:06.395Z,14.9444444444
2018-09-09T01:05:18.833Z,14.9444444444
2018-09-09T01:05:31.246Z,14.9444444444
2018-09-09T01:05:43.689Z,14.9444444444
2018-09-09T01:05:56.089Z,14.9444444444
2018-09-09T01:06:08.514Z,14.9444444444
2018-09-09T01:06:20.931Z,14.9444444444
2018-09-09T01:06:33.345Z,14.9444444444
2018-09-09T01:06:45.778Z,14.9444444444
2018-09-09T01:06:58.312Z,14.8888888889
2018-09-09T01:07:10.703Z,14.8888888889
2018-09-09T01:07:23.109Z,14.8888888889
2018-09-09T01:07:35.522Z,14.8888888889
2018-09-09T01:07:47.942Z,14.8888888889
2018-09-09T01:08:00.380Z,14.8888888889
2018-09-09T01:08:12.788Z,14.8333333333
2018-09-09T01:08:25.200Z,14.8888888889
2018-09-09T01:08:37.788Z,14.8888888889
2018-09-09T01:08:50.195Z,14.8333333333
2018-09-09T01:09:02.586Z,14.8333333333
2018-09-09T01:09:15.050Z,14.8333333333
2018-09-09T01:09:27.445Z,14.8333333333
2018-09-09T01:09:39.863Z,14.8333333333
2018-09-09T01:09:52.273Z,14.8333333333
2018-09-09T01:10:04.682Z,14.8333333333
2018-09-09T01:10:17.138Z,14.8333333333
2018-09-09T01:10:29.523Z,14.8333333333
2018-09-09T01:10:41.932Z,14.8333333333
2018-09-09T01:10:54.332Z,14.7777777778
2018-09-09T01:11:06.755Z,14.8333333333
2018-09-09T01:11:19.166Z,14.7777777778
2018-09-09T01:11:31.569Z,14.7777777778
2018-09-09T01:11:44.053Z,14.7777777778
2018-09-09T01:11:56.454Z,14.7777777778
2018-09-09T01:12:08.867Z,14.7777777778
2018-09-09T01:12:21.407Z,14.7777777778
2018-09-09T01:12:33.826Z,14.7222222222
2018-09-09T01:12:46.379Z,14.7222222222
2018-09-09T01:12:58.780Z,14.7222222222
2018-09-09T01:13:11.208Z,14.7777777778
2018-09-09T01:13:23.645Z,14.7222222222
2018-09-09T01:13:36.073Z,14.7222222222
2018-09-09T01:13:48.578Z,14.7222222222
2018-09-09T01:14:00.985Z,14.7222222222
2018-09-09T01:14:13.390Z,14.7222222222
2018-09-09T01:14:25.844Z,14.7222222222
2018-09-09T01:14:38.285Z,14.6666666667
2018-09-09T01:14:50.727Z,14.7222222222
2018-09-09T01:15:03.194Z,14.6666666667
2018-09-09T01:15:15.628Z,14.6666666667
2018-09-09T01:15:28.077Z,14.6666666667
2018-09-09T01:15:40.502Z,14.6666666667
2018-09-09T01:15:52.960Z,14.6666666667
2018-09-09T01:16:05.535Z,14.6666666667
2018-09-09T01:16:17.956Z,14.6666666667
2018-09-09T01:16:30.374Z,14.6666666667
2018-09-09T01:16:42.764Z,14.6666666667
2018-09-09T01:16:55.209Z,14.6666666667
2018-09-09T01:17:07.607Z,14.6666666667
2018-09-09T01:17:20.026Z,14.6666666667
2018-09-09T01:17:32.458Z,14.6666666667
2018-09-09T01:17:45.062Z,14.6666666667
2018-09-09T01:17:57.487Z,14.6666666667
2018-09-09T01:18:09.890Z,14.6111111111
2018-09-09T01:18:22.664Z,14.6111111111
2018-09-09T01:18:35.084Z,14.6111111111
2018-09-09T01:18:47.497Z,14.6666666667
2018-09-09T01:18:59.907Z,14.6111111111
2018-09-09T01:19:12.347Z,14.6111111111
2018-09-09T01:19:24.773Z,14.6111111111
2018-09-09T01:19:37.204Z,14.6111111111
2018-09-09T01:19:49.637Z,14.6111111111
2018-09-09T01:20:02.047Z,14.6111111111
2018-09-09T01:20:14.446Z,14.6111111111
2018-09-09T01:20:26.868Z,14.6111111111
2018-09-09T01:20:40.114Z,14.6111111111
2018-09-09T01:20:52.536Z,14.5555555556
2018-09-09T01:21:04.943Z,14.6111111111
2018-09-09T01:21:17.399Z,14.6111111111
2018-09-09T01:21:29.792Z,14.5555555556
2018-09-09T01:21:42.230Z,14.6111111111
2018-09-09T01:21:54.646Z,14.6111111111
2018-09-09T01:22:07.068Z,14.5555555556
2018-09-09T01:22:19.490Z,14.5555555556
2018-09-09T01:22:31.905Z,14.5555555556
2018-09-09T01:22:44.316Z,14.6111111111
2018-09-09T01:22:56.719Z,14.5555555556
2018-09-09T01:23:09.195Z,14.6111111111
2018-09-09T01:23:21.637Z,14.6111111111
2018-09-09T01:23:34.033Z,14.6111111111
2018-09-09T01:23:46.433Z,14.6111111111
2018-09-09T01:23:59.137Z,14.6111111111
2018-09-09T01:24:11.547Z,14.6111111111
2018-09-09T01:24:23.945Z,14.6111111111
2018-09-09T01:24:36.329Z,14.6111111111
2018-09-09T01:24:48.722Z,14.6111111111
2018-09-09T01:25:01.110Z,14.6111111111
2018-09-09T01:25:13.513Z,14.6111111111
2018-09-09T01:25:25.931Z,14.6111111111
2018-09-09T01:25:38.389Z,14.6111111111
2018-09-09T01:25:50.792Z,14.6666666667
2018-09-09T01:26:03.174Z,14.6666666667
2018-09-09T01:26:15.573Z,14.6666666667
2018-09-09T01:26:28.012Z,14.6666666667
2018-09-09T01:26:40.401Z,14.6666666667
2018-09-09T01:26:52.937Z,14.6666666667
2018-09-09T01:27:05.341Z,14.6666666667
2018-09-09T01:27:17.730Z,14.6666666667
2018-09-09T01:27:30.164Z,14.6666666667
2018-09-09T01:27:42.552Z,14.6666666667
2018-09-09T01:27:54.947Z,14.6666666667
2018-09-09T01:28:07.323Z,14.6666666667
2018-09-09T01:28:19.723Z,14.7222222222
2018-09-09T01:28:32.132Z,14.6666666667
2018-09-09T01:28:44.531Z,14.7222222222
2018-09-09T01:28:56.933Z,14.7222222222
2018-09-09T01:29:09.335Z,14.7222222222
2018-09-09T01:29:21.749Z,14.7222222222
2018-09-09T01:29:34.153Z,14.7777777778
2018-09-09T01:29:46.542Z,14.7222222222
2018-09-09T01:29:58.948Z,14.7222222222
2018-09-09T01:30:11.351Z,14.7777777778
2018-09-09T01:30:23.765Z,14.7777777778
2018-09-09T01:30:36.156Z,14.7777777778
2018-09-09T01:30:48.559Z,14.7777777778
2018-09-09T01:31:00.952Z,14.7777777778
2018-09-09T01:31:13.361Z,14.7777777778
2018-09-09T01:31:25.773Z,14.7777777778
2018-09-09T01:31:38.171Z,14.7777777778
2018-09-09T01:31:50.614Z,14.7777777778
2018-09-09T01:32:03.004Z,14.7777777778
2018-09-09T01:32:15.396Z,14.7777777778
2018-09-09T01:32:27.814Z,14.7777777778
2018-09-09T01:32:40.211Z,14.7777777778
2018-09-09T01:32:52.606Z,14.8333333333
2018-09-09T01:33:05.018Z,14.7777777778
2018-09-09T01:33:17.435Z,14.7777777778
2018-09-09T01:33:29.832Z,14.8333333333
2018-09-09T01:33:42.552Z,14.8333333333
2018-09-09T01:33:54.947Z,14.8333333333
2018-09-09T01:34:07.390Z,14.8333333333
2018-09-09T01:34:19.798Z,14.8333333333
2018-09-09T01:34:32.278Z,14.8333333333
2018-09-09T01:34:44.684Z,14.8333333333
2018-09-09T01:34:57.076Z,14.8333333333
2018-09-09T01:35:09.607Z,14.8333333333
2018-09-09T01:35:22.012Z,14.8333333333
2018-09-09T01:35:34.449Z,14.8333333333
2018-09-09T01:35:46.851Z,14.8333333333
2018-09-09T01:35:59.258Z,14.8333333333
2018-09-09T01:36:11.711Z,14.8333333333
2018-09-09T01:36:24.181Z,14.8333333333
2018-09-09T01:36:36.586Z,14.8888888889
2018-09-09T01:36:48.986Z,14.8333333333
2018-09-09T01:37:01.374Z,14.8333333333
2018-09-09T01:37:13.823Z,14.8333333333
2018-09-09T01:37:26.227Z,14.8333333333
2018-09-09T01:37:38.666Z,14.8333333333
2018-09-09T01:37:51.058Z,14.8333333333
2018-09-09T01:38:03.471Z,14.8333333333
2018-09-09T01:38:15.864Z,14.8333333333
2018-09-09T01:38:28.338Z,14.8333333333
2018-09-09T01:38:40.738Z,14.8333333333
2018-09-09T01:38:53.142Z,14.8333333333
2018-09-09T01:39:05.558Z,14.8333333333
2018-09-09T01:39:17.952Z,14.8333333333
2018-09-09T01:39:30.370Z,14.8333333333
2018-09-09T01:39:42.767Z,14.8333333333
2018-09-09T01:39:55.180Z,14.8333333333
2018-09-09T01:40:07.735Z,14.8333333333
2018-09-09T01:40:20.141Z,14.8333333333
2018-09-09T01:40:32.555Z,14.8333333333
2018-09-09T01:40:44.946Z,14.8333333333
2018-09-09T01:40:57.360Z,14.8333333333
2018-09-09T01:41:09.791Z,14.8333333333
2018-09-09T01:41:22.193Z,14.8333333333
2018-09-09T01:41:34.603Z,14.8333333333
2018-09-09T01:41:47.023Z,14.8333333333
2018-09-09T01:41:59.417Z,14.8333333333
2018-09-09T01:42:11.816Z,14.8333333333
2018-09-09T01:42:24.227Z,14.8333333333
2018-09-09T01:42:36.644Z,14.8333333333
2018-09-09T01:42:49.083Z,14.8333333333
2018-09-09T01:43:01.510Z,14.8333333333
2018-09-09T01:43:13.913Z,14.8333333333
2018-09-09T01:43:26.318Z,14.8333333333
2018-09-09T01:43:38.715Z,14.8333333333
2018-09-09T01:43:51.130Z,14.8333333333
2018-09-09T01:44:03.548Z,14.8333333333
2018-09-09T01:44:15.975Z,14.8333333333
2018-09-09T01:44:28.381Z,14.8333333333
2018-09-09T01:44:40.796Z,14.8333333333
2018-09-09T01:44:53.186Z,14.8333333333
2018-09-09T01:45:05.612Z,14.8333333333
2018-09-09T01:45:18.034Z,14.8333333333
2018-09-09T01:45:30.498Z,14.8333333333
2018-09-09T01:45:42.893Z,14.8333333333
2018-09-09T01:45:55.297Z,14.7777777778
2018-09-09T01:46:07.720Z,14.7777777778
2018-09-09T01:46:20.103Z,14.7777777778
2018-09-09T01:46:32.524Z,14.7777777778
2018-09-09T01:46:44.953Z,14.7777777778
2018-09-09T01:46:57.412Z,14.7777777778
2018-09-09T01:47:09.816Z,14.7777777778
2018-09-09T01:47:22.204Z,14.7777777778
2018-09-09T01:47:34.623Z,14.7777777778
2018-09-09T01:47:47.008Z,14.7222222222
2018-09-09T01:47:59.412Z,14.7777777778
2018-09-09T01:48:11.819Z,14.7222222222
2018-09-09T01:48:24.230Z,14.7222222222
2018-09-09T01:48:36.628Z,14.7222222222
2018-09-09T01:48:49.028Z,14.7222222222
2018-09-09T01:49:01.458Z,14.7222222222
2018-09-09T01:49:14.014Z,14.7222222222
2018-09-09T01:49:26.410Z,14.7222222222
2018-09-09T01:49:38.814Z,14.7222222222
2018-09-09T01:49:51.251Z,14.7222222222
2018-09-09T01:50:03.699Z,14.7222222222
2018-09-09T01:50:16.102Z,14.7222222222
2018-09-09T01:50:28.669Z,14.6666666667
2018-09-09T01:50:41.087Z,14.6666666667
2018-09-09T01:50:53.492Z,14.6666666667
2018-09-09T01:51:05.918Z,14.6666666667
2018-09-09T01:51:18.329Z,14.6666666667
2018-09-09T01:51:30.991Z,14.6666666667
2018-09-09T01:51:43.400Z,14.6666666667
2018-09-09T01:51:55.804Z,14.6666666667
2018-09-09T01:52:08.311Z,14.6666666667
2018-09-09T01:52:20.712Z,14.6666666667
2018-09-09T01:52:33.125Z,14.6666666667
2018-09-09T01:52:45.533Z,14.6666666667
2018-09-09T01:52:57.947Z,14.6666666667
2018-09-09T01:53:10.391Z,14.6666666667
2018-09-09T01:53:22.806Z,14.6666666667
2018-09-09T01:53:35.203Z,14.6666666667
2018-09-09T01:53:47.606Z,14.6666666667
2018-09-09T01:54:00.024Z,14.6666666667
2018-09-09T01:54:12.442Z,14.6666666667
2018-09-09T01:54:24.871Z,14.6666666667
2018-09-09T01:54:37.289Z,14.6666666667
2018-09-09T01:54:49.698Z,14.6666666667
2018-09-09T01:55:02.116Z,14.6666666667
2018-09-09T01:55:14.515Z,14.6666666667
2018-09-09T01:55:26.922Z,14.6666666667
2018-09-09T01:55:39.335Z,14.6111111111
2018-09-09T01:55:51.725Z,14.6666666667
2018-09-09T01:56:04.133Z,14.6666666667
2018-09-09T01:56:16.543Z,14.6666666667
2018-09-09T01:56:28.929Z,14.6666666667
2018-09-09T01:56:41.361Z,14.6666666667
2018-09-09T01:56:53.771Z,14.6666666667
2018-09-09T01:57:06.150Z,14.6111111111
2018-09-09T01:57:18.544Z,14.6111111111
2018-09-09T01:57:30.947Z,14.6111111111
2018-09-09T01:57:43.731Z,14.6111111111
2018-09-09T01:57:56.223Z,14.5555555556
2018-09-09T01:58:08.617Z,14.6111111111
2018-09-09T01:58:21.024Z,14.6111111111
2018-09-09T01:58:33.433Z,14.6111111111
2018-09-09T01:58:45.825Z,14.6111111111
2018-09-09T01:58:58.230Z,14.6111111111
2018-09-09T01:59:10.610Z,14.5555555556
2018-09-09T01:59:23.149Z,14.6111111111
2018-09-09T01:59:35.578Z,14.5555555556
2018-09-09T01:59:47.999Z,14.6111111111
2018-09-09T02:00:00.400Z,14.5555555556
2018-09-09T02:00:12.839Z,14.6111111111
2018-09-09T02:00:25.269Z,14.5555555556
2018-09-09T02:00:37.705Z,14.6111111111
2018-09-09T02:00:50.176Z,14.5555555556
2018-09-09T02:01:02.596Z,14.5555555556
2018-09-09T02:01:15.038Z,14.5555555556
2018-09-09T02:01:27.488Z,14.5555555556
2018-09-09T02:01:39.902Z,14.5555555556
2018-09-09T02:01:52.294Z,14.5555555556
2018-09-09T02:02:04.710Z,14.5555555556
2018-09-09T02:02:17.122Z,14.5555555556
2018-09-09T02:02:29.517Z,14.5555555556
2018-09-09T02:02:41.920Z,14.5
2018-09-09T02:02:54.344Z,14.5555555556
2018-09-09T02:03:06.730Z,14.5555555556
2018-09-09T02:03:19.254Z,14.5555555556
2018-09-09T02:03:31.654Z,14.5555555556
2018-09-09T02:03:44.057Z,14.5555555556
2018-09-09T02:03:56.905Z,14.5555555556
2018-09-09T02:04:09.327Z,14.5555555556
2018-09-09T02:04:21.737Z,14.5
2018-09-09T02:04:34.152Z,14.5
2018-09-09T02:04:46.724Z,14.5555555556
2018-09-09T02:04:59.126Z,14.5555555556
2018-09-09T02:05:11.561Z,14.5
2018-09-09T02:05:24.118Z,14.5555555556
2018-09-09T02:05:36.515Z,14.5
2018-09-09T02:05:48.906Z,14.5555555556
2018-09-09T02:06:01.327Z,14.5
2018-09-09T02:06:13.736Z,14.5
2018-09-09T02:06:26.172Z,14.5
2018-09-09T02:06:38.592Z,14.5
2018-09-09T02:06:51.008Z,14.5
2018-09-09T02:07:03.503Z,14.5
2018-09-09T02:07:15.906Z,14.5
2018-09-09T02:07:28.339Z,14.5
2018-09-09T02:07:40.750Z,14.5
2018-09-09T02:07:53.172Z,14.5
2018-09-09T02:08:05.587Z,14.4444444444
2018-09-09T02:08:18.044Z,14.4444444444
2018-09-09T02:08:30.444Z,14.5
2018-09-09T02:08:42.842Z,14.5